Time;durP1;ratioP1;P1;durP2;ratioP2;P2;SDS_P1;SDS_P2;PMS_P1;PMS_P2;Temp;Humidity;BMP_temperature;BMP_pressure;BME280_temperature;BME280_humidity;BME280_pressure;Samples;Min_cycle;Max_cycle;Signal;HPM_P1;HPM_P2
2021/10/01 00:02:04;;;;;;;3.20;2.90;;;7.30;99.90;;;8.02;83.51;98733.19;5160445;28;20222;-62
2021/10/01 00:04:37;;;;;;;2.90;2.70;;;7.20;99.90;;;8.02;83.42;98731.50;5163091;28;20265;-62
2021/10/01 00:07:11;;;;;;;3.10;2.90;;;7.20;99.90;;;8.08;83.45;98732.00;5154987;28;20545;-61
2021/10/01 00:09:45;;;;;;;3.03;2.73;;;7.20;99.90;;;8.04;84.18;98730.00;5163956;28;20689;-62
2021/10/01 00:12:18;;;;;;;3.10;2.90;;;7.30;99.90;;;8.03;84.01;98725.66;5160193;28;20599;-62
2021/10/01 00:14:51;;;;;;;3.30;3.03;;;7.30;99.90;;;8.03;83.77;98728.19;5160766;28;20294;-62
2021/10/01 00:17:25;;;;;;;3.57;3.30;;;7.30;99.90;;;7.99;83.71;98722.75;5158054;28;20573;-62
2021/10/01 00:19:58;;;;;;;3.70;3.40;;;7.20;99.90;;;7.95;83.81;98713.94;5163723;28;20639;-62
2021/10/01 00:22:31;;;;;;;3.93;3.53;;;7.20;99.90;;;7.89;83.33;98708.38;5162860;28;20241;-62
2021/10/01 00:25:06;;;;;;;3.43;3.13;;;7.10;99.90;;;7.89;83.90;98706.69;5163417;28;20211;-62
2021/10/01 00:27:39;;;;;;;3.53;3.20;;;7.10;99.90;;;7.91;84.47;98704.28;5162210;28;20203;-62
2021/10/01 00:30:13;;;;;;;3.27;2.97;;;7.10;99.90;;;7.92;83.35;98708.59;5162700;28;20211;-61
2021/10/01 00:32:48;;;;;;;3.27;3.00;;;7.10;99.90;;;7.91;83.61;98709.38;5159306;28;20223;-61
2021/10/01 00:35:21;;;;;;;3.00;2.80;;;7.00;99.90;;;7.79;83.37;98709.28;5163297;28;20198;-62
2021/10/01 00:37:54;;;;;;;4.17;2.90;;;7.00;99.90;;;7.82;83.80;98701.91;5158978;28;20605;-61
2021/10/01 00:40:29;;;;;;;3.10;2.90;;;7.00;99.90;;;7.86;83.64;98703.03;5162833;28;20195;-61
2021/10/01 00:43:02;;;;;;;3.20;2.90;;;7.00;99.90;;;7.85;83.25;98699.59;5160711;28;20218;-62
2021/10/01 00:45:36;;;;;;;3.30;3.10;;;7.00;99.90;;;7.86;84.31;98700.47;5162872;28;20195;-62
2021/10/01 00:48:09;;;;;;;3.97;3.20;;;7.00;99.90;;;7.84;83.55;98700.38;5162204;28;20585;-61
2021/10/01 00:50:42;;;;;;;3.60;3.30;;;7.00;99.90;;;7.82;83.93;98693.38;5162714;28;20643;-62
2021/10/01 00:53:15;;;;;;;3.70;3.40;;;7.00;99.90;;;7.80;84.41;98698.31;5159639;28;20235;-61
2021/10/01 00:55:50;;;;;;;3.27;2.97;;;6.90;99.90;;;7.71;83.70;98692.50;5163929;28;20214;-62
2021/10/01 00:58:23;;;;;;;3.17;2.97;;;6.80;99.90;;;7.73;83.50;98695.19;5162673;28;20230;-62
2021/10/01 01:01:09;;;;;;;3.63;2.47;;;6.80;99.90;;;7.68;84.31;98692.25;5162882;28;20207;-61
2021/10/01 01:03:48;;;;;;;3.47;2.63;;;6.90;99.90;;;7.67;84.75;98686.28;5161292;28;20242;-61
2021/10/01 01:06:35;;;;;;;3.07;2.87;;;6.90;99.90;;;7.73;83.80;98675.72;5163114;28;20214;-62
2021/10/01 01:09:27;;;;;;;3.20;3.00;;;6.90;99.90;;;7.73;84.02;98674.81;5157371;28;20285;-62
2021/10/01 01:12:23;;;;;;;3.70;3.47;;;6.90;99.90;;;7.75;84.21;98663.09;5159707;28;20703;-62
2021/10/01 01:15:08;;;;;;;4.10;3.80;;;7.00;99.90;;;7.75;84.56;98661.44;5161197;28;20343;-62
2021/10/01 01:17:45;;;;;;;3.40;3.10;;;7.00;99.90;;;7.75;83.31;98660.56;5163031;28;20671;-62
2021/10/01 01:20:25;;;;;;;3.93;3.23;;;6.90;99.90;;;7.70;84.24;98661.81;5161748;28;20199;-62
2021/10/01 01:23:32;;;;;;;3.40;3.10;;;6.90;99.90;;;7.63;84.87;98651.16;5162768;28;20223;-62
2021/10/01 01:26:14;;;;;;;3.30;3.00;;;6.90;99.90;;;7.62;84.43;98657.03;5159307;28;20275;-62
2021/10/01 01:29:10;;;;;;;3.37;3.07;;;6.90;99.90;;;7.61;84.17;98650.16;5163331;28;20209;-62
2021/10/01 01:31:51;;;;;;;3.10;2.90;;;6.80;99.90;;;7.58;84.82;98649.00;5157408;28;20896;-62
2021/10/01 01:34:33;;;;;;;3.40;3.10;;;6.80;99.90;;;7.58;85.44;98642.28;5162704;28;20203;-62
2021/10/01 01:37:15;;;;;;;3.60;3.33;;;6.80;99.90;;;7.58;84.63;98637.19;5159402;28;20199;-62
2021/10/01 01:39:50;;;;;;;3.40;3.10;;;6.80;99.90;;;7.58;84.76;98637.19;5159852;28;20210;-62
2021/10/01 01:42:24;;;;;;;3.40;3.10;;;6.80;99.90;;;7.56;84.08;98633.63;5159714;28;20219;-61
2021/10/01 01:44:59;;;;;;;3.33;3.00;;;6.70;99.90;;;7.50;85.73;98628.06;5160662;28;20290;-62
2021/10/01 01:47:33;;;;;;;4.90;2.80;;;6.70;99.90;;;7.51;84.78;98618.75;5161968;28;20575;-62
2021/10/01 01:50:09;;;;;;;3.87;3.07;;;6.70;99.90;;;7.52;83.59;98620.53;5162043;28;20210;-62
2021/10/01 01:52:45;;;;;;;2.60;2.40;;;6.60;99.90;;;7.45;84.35;98614.06;5164112;22;20235;-62
2021/10/01 01:55:18;;;;;;;2.70;2.50;;;6.60;99.90;;;7.44;84.21;98615.72;5143062;28;20204;-62
2021/10/01 01:57:53;;;;;;;2.30;2.20;;;6.60;99.90;;;7.37;84.91;98620.19;5141911;28;20231;-63
2021/10/01 02:00:27;;;;;;;2.70;2.50;;;6.50;99.90;;;7.39;85.52;98616.13;5148373;28;20207;-62
2021/10/01 02:03:02;;;;;;;2.70;2.50;;;6.60;99.90;;;7.36;85.15;98613.34;5147490;28;20254;-63
2021/10/01 02:05:37;;;;;;;2.97;2.57;;;6.60;99.90;;;7.44;85.17;98609.75;5147099;28;20208;-62
2021/10/01 02:08:10;;;;;;;2.80;2.60;;;6.60;99.90;;;7.38;86.29;98611.78;5163761;28;20199;-63
2021/10/01 02:10:44;;;;;;;3.37;2.43;;;6.60;99.90;;;7.33;86.01;98610.53;5145809;28;20204;-62
2021/10/01 02:13:19;;;;;;;2.57;2.47;;;6.50;99.90;;;7.34;86.14;98607.22;5157222;28;20223;-62
2021/10/01 02:15:54;;;;;;;3.00;2.80;;;6.60;99.90;;;7.37;86.09;98603.25;5158364;28;20623;-62
2021/10/01 02:18:29;;;;;;;2.83;2.60;;;6.60;99.90;;;7.41;85.26;98595.13;5157069;28;20265;-60
2021/10/01 02:21:06;;;;;;;2.60;2.50;;;6.60;99.90;;;7.37;86.29;98597.28;5147935;28;20195;-62
2021/10/01 02:23:40;;;;;;;2.17;2.10;;;6.60;99.90;;;7.38;85.62;98593.97;5152646;28;20230;-62
2021/10/01 02:26:35;;;;;;;2.70;2.50;;;6.60;99.90;;;7.37;85.28;98585.47;5148504;28;20202;-56
2021/10/01 02:29:17;;;;;;;2.70;2.53;;;6.60;99.90;;;7.39;85.36;98581.41;5152996;28;20192;-56
2021/10/01 02:31:56;;;;;;;2.63;2.43;;;6.60;99.90;;;7.40;84.96;98580.63;5153983;28;20214;-58
2021/10/01 02:34:34;;;;;;;2.93;2.73;;;6.50;99.90;;;7.33;85.50;98568.19;5141526;28;20287;-57
2021/10/01 02:37:10;;;;;;;3.93;3.33;;;6.50;99.90;;;7.28;86.33;98568.59;5142656;28;20232;-58
2021/10/01 02:39:46;;;;;;;3.90;3.60;;;6.50;99.90;;;7.17;87.63;98573.66;5146915;28;20240;-57
2021/10/01 02:42:21;;;;;;;3.57;3.27;;;6.50;99.90;;;7.26;86.25;98562.47;5147600;28;20230;-57
2021/10/01 02:44:55;;;;;;;3.63;3.33;;;6.50;99.90;;;7.26;86.30;98559.94;5145678;28;20200;-57
2021/10/01 02:47:31;;;;;;;3.27;3.00;;;6.50;99.90;;;7.26;85.62;98563.34;5149958;28;20196;-53
2021/10/01 02:50:08;;;;;;;3.40;3.20;;;6.40;99.90;;;7.25;85.44;98560.72;5145128;28;20206;-55
2021/10/01 02:52:58;;;;;;;3.50;3.20;;;6.40;99.90;;;7.24;85.26;98564.91;5148584;28;20231;-57
2021/10/01 02:55:41;;;;;;;4.73;3.03;;;6.40;99.90;;;7.19;85.24;98559.44;5146947;28;20294;-58
2021/10/01 02:58:19;;;;;;;3.57;3.27;;;6.40;99.90;;;7.14;85.64;98555.63;5141756;28;20583;-57
2021/10/01 03:00:55;;;;;;;4.27;3.93;;;6.40;99.90;;;7.18;85.47;98562.75;5143383;28;20294;-56
2021/10/01 03:03:33;;;;;;;3.87;3.57;;;6.40;99.90;;;7.19;85.14;98556.03;5148013;28;20222;-57
2021/10/01 03:06:07;;;;;;;4.80;4.40;;;6.40;99.90;;;7.18;85.39;98552.59;5142978;28;20307;-53
2021/10/01 03:08:42;;;;;;;3.97;3.67;;;6.40;99.90;;;7.19;86.10;98551.81;5143693;28;20211;-59
2021/10/01 03:11:17;;;;;;;3.43;3.13;;;6.40;99.90;;;7.16;85.59;98556.66;5138052;28;20291;-58
2021/10/01 03:13:50;;;;;;;3.30;3.10;;;6.20;99.90;;;7.20;86.06;98552.69;5145482;28;20310;-62
2021/10/01 03:16:24;;;;;;;3.30;3.10;;;6.30;99.90;;;7.17;85.97;98553.34;5144080;28;20203;-58
2021/10/01 03:18:59;;;;;;;3.30;3.00;;;6.30;99.90;;;7.14;86.36;98550.53;5143721;28;20262;-58
2021/10/01 03:21:34;;;;;;;3.60;3.40;;;6.30;99.90;;;7.13;86.22;98542.81;5144703;28;20287;-57
2021/10/01 03:24:10;;;;;;;3.50;3.30;;;6.40;99.90;;;7.14;85.85;98548.00;5145516;28;20707;-58
2021/10/01 03:26:44;;;;;;;3.27;3.07;;;6.40;99.90;;;7.13;85.66;98540.28;5145947;28;20206;-62
2021/10/01 03:29:18;;;;;;;3.20;3.00;;;6.30;99.90;;;7.04;85.66;98537.88;5144216;28;20195;-62
2021/10/01 03:31:51;;;;;;;3.57;2.67;;;6.20;99.90;;;7.12;86.00;98535.94;5145905;28;20230;-60
2021/10/01 03:34:24;;;;;;;2.90;2.80;;;6.30;99.90;;;7.09;86.33;98534.03;5144380;28;20192;-61
2021/10/01 03:36:58;;;;;;;3.00;2.80;;;6.30;99.90;;;7.11;86.44;98536.72;5143673;28;20581;-60
2021/10/01 03:39:32;;;;;;;3.30;3.00;;;6.40;99.90;;;7.09;86.82;98528.06;5143977;28;20963;-61
2021/10/01 03:42:07;;;;;;;3.13;2.93;;;6.40;99.90;;;7.12;87.48;98524.09;5146181;28;20208;-62
2021/10/01 03:44:40;;;;;;;3.57;3.37;;;6.40;99.90;;;7.18;87.14;98526.25;5143305;28;20286;-60
2021/10/01 03:47:13;;;;;;;4.03;3.80;;;6.40;99.90;;;7.18;86.52;98529.72;5144439;28;20203;-62
2021/10/01 03:49:46;;;;;;;4.13;3.80;;;6.40;99.90;;;7.16;86.56;98526.16;5144014;28;20202;-62
2021/10/01 03:52:20;;;;;;;3.77;3.40;;;6.40;99.90;;;7.18;86.05;98529.72;5144984;28;20229;-62
2021/10/01 03:54:54;;;;;;;3.23;3.03;;;6.40;99.90;;;7.19;85.24;98530.59;5142021;28;20214;-62
2021/10/01 03:57:27;;;;;;;2.70;2.50;;;6.20;99.90;;;7.13;86.61;98522.47;5146058;28;20200;-60
2021/10/01 04:00:00;;;;;;;3.60;3.33;;;6.30;99.90;;;7.18;86.63;98524.63;5143214;28;20220;-55
2021/10/01 04:02:33;;;;;;;2.90;2.70;;;6.40;99.90;;;7.14;86.74;98527.66;5144180;28;20220;-59
2021/10/01 04:05:07;;;;;;;3.23;3.03;;;6.30;99.90;;;7.13;87.67;98525.91;5144652;28;20597;-58
2021/10/01 04:07:41;;;;;;;2.80;2.60;;;6.30;99.90;;;7.10;87.06;98519.69;5144202;28;20200;-58
2021/10/01 04:10:15;;;;;;;3.30;3.00;;;6.30;99.90;;;7.13;86.73;98520.81;5138226;28;20195;-58
2021/10/01 04:12:48;;;;;;;3.13;3.00;;;6.30;99.90;;;7.14;87.16;98516.63;5142706;28;20333;-53
2021/10/01 04:15:21;;;;;;;3.67;3.43;;;6.40;99.90;;;7.13;86.97;98515.72;5143469;28;20571;-58
2021/10/01 04:17:54;;;;;;;3.33;3.13;;;6.40;99.90;;;7.16;86.88;98505.81;5142539;28;20587;-58
2021/10/01 04:20:28;;;;;;;3.47;3.17;;;6.40;99.90;;;7.12;86.70;98506.31;5138874;28;20230;-59
2021/10/01 04:23:01;;;;;;;3.40;3.17;;;6.40;99.90;;;7.12;87.18;98503.78;5142973;28;20593;-56
2021/10/01 04:25:35;;;;;;;3.57;3.30;;;6.40;99.90;;;7.15;86.88;98503.13;5143213;28;20227;-63
2021/10/01 04:28:10;;;;;;;3.40;3.10;;;6.40;99.90;;;7.19;87.57;98511.13;5143047;28;20238;-63
2021/10/01 04:30:45;;;;;;;4.73;3.73;;;6.40;99.90;;;7.17;86.84;98496.53;5144858;28;20227;-62
2021/10/01 04:33:21;;;;;;;3.10;2.90;;;6.40;99.90;;;7.15;86.56;98498.97;5142617;28;20234;-62
2021/10/01 04:35:54;;;;;;;3.40;3.10;;;6.40;99.90;;;7.13;86.79;98502.16;5138760;28;20299;-62
2021/10/01 04:38:27;;;;;;;4.17;3.30;;;6.30;99.90;;;7.12;86.60;98501.22;5143668;28;20200;-62
2021/10/01 04:41:02;;;;;;;3.00;2.80;;;6.30;99.90;;;7.08;87.05;98496.69;5143855;28;20230;-60
2021/10/01 04:43:36;;;;;;;3.47;3.10;;;6.30;99.90;;;7.14;86.64;98501.38;5143023;28;20310;-61
2021/10/01 04:46:09;;;;;;;3.63;2.83;;;6.40;99.90;;;7.09;87.20;98500.97;5142214;28;20209;-62
2021/10/01 04:48:43;;;;;;;2.93;2.73;;;6.40;99.90;;;7.10;87.08;98502.78;5142354;28;20230;-62
2021/10/01 04:51:16;;;;;;;3.10;2.90;;;6.30;99.90;;;7.09;87.27;98502.66;5142800;28;20200;-62
2021/10/01 04:53:49;;;;;;;2.90;2.70;;;6.30;99.90;;;7.10;86.52;98500.25;5142672;28;20527;-62
2021/10/01 04:56:25;;;;;;;3.60;3.40;;;6.30;99.90;;;7.14;87.05;98512.41;5142906;28;20191;-58
2021/10/01 04:58:58;;;;;;;3.20;2.90;;;6.30;99.90;;;7.12;86.00;98511.41;5142332;28;20200;-56
2021/10/01 05:01:32;;;;;;;3.27;3.03;;;6.30;99.90;;;7.06;86.18;98503.28;5142218;28;20196;-60
2021/10/01 05:04:05;;;;;;;3.40;3.20;;;6.30;99.90;;;6.98;86.06;98509.38;5136568;28;20569;-58
2021/10/01 05:06:38;;;;;;;3.60;3.30;;;6.20;99.90;;;7.02;87.34;98505.47;5142800;28;20204;-60
2021/10/01 05:09:11;;;;;;;3.70;3.40;;;6.30;99.90;;;6.92;86.31;98504.69;5143529;28;20207;-62
2021/10/01 05:11:46;;;;;;;3.77;3.40;;;6.10;99.90;;;6.89;87.19;98501.91;5142827;28;20203;-61
2021/10/01 05:14:19;;;;;;;3.97;3.63;;;6.10;99.90;;;6.90;87.46;98510.44;5134751;28;20251;-58
2021/10/01 05:16:52;;;;;;;3.27;3.07;;;6.10;99.90;;;6.87;87.08;98506.00;5142149;28;20208;-56
2021/10/01 05:19:25;;;;;;;3.67;3.37;;;6.10;99.90;;;6.89;87.92;98511.19;5140320;28;20230;-59
2021/10/01 05:21:58;;;;;;;3.03;2.93;;;6.20;99.90;;;6.89;88.04;98506.09;5141733;28;20214;-58
2021/10/01 05:24:31;;;;;;;3.50;3.30;;;6.20;99.90;;;6.96;87.02;98511.81;5134215;28;20494;-57
2021/10/01 05:27:06;;;;;;;3.20;3.00;;;6.20;99.90;;;6.91;86.60;98515.63;5142952;28;20295;-55
2021/10/01 05:29:39;;;;;;;3.77;3.37;;;6.20;99.90;;;6.90;86.40;98511.31;5143503;28;20640;-62
2021/10/01 05:32:13;;;;;;;3.83;3.53;;;6.20;99.90;;;6.87;87.03;98517.81;5135976;28;20224;-56
2021/10/01 05:34:46;;;;;;;4.17;3.87;;;6.10;99.90;;;6.85;86.79;98521.88;5143666;28;20196;-59
2021/10/01 05:37:20;;;;;;;4.00;3.80;;;6.10;99.90;;;6.74;87.00;98523.53;5143263;28;20644;-61
2021/10/01 05:39:53;;;;;;;4.07;3.77;;;6.00;99.90;;;6.77;88.15;98517.03;5145654;28;20227;-62
2021/10/01 05:42:28;;;;;;;3.57;3.37;;;6.00;99.90;;;6.85;88.04;98521.88;5146388;28;20248;-58
2021/10/01 05:45:02;;;;;;;4.30;3.93;;;6.10;99.90;;;6.92;87.73;98511.44;5146172;28;20199;-54
2021/10/01 05:47:37;;;;;;;4.00;3.70;;;6.20;99.90;;;6.99;87.88;98514.63;5146526;28;20199;-62
2021/10/01 05:50:14;;;;;;;4.30;4.00;;;6.30;99.90;;;7.10;87.99;98514.59;5147333;28;20200;-62
2021/10/01 05:52:53;;;;;;;4.13;3.70;;;6.40;99.90;;;7.20;87.28;98512.91;5145415;28;20441;-61
2021/10/01 05:55:26;;;;;;;4.17;3.87;;;6.50;99.90;;;7.26;87.84;98514.16;5147068;28;20200;-61
2021/10/01 05:58:01;;;;;;;4.47;4.07;;;6.50;99.90;;;7.35;87.66;98520.88;5139814;28;20204;-60
2021/10/01 06:00:34;;;;;;;4.17;3.87;;;6.60;99.90;;;7.43;86.46;98518.94;5146448;28;20314;-57
2021/10/01 06:03:07;;;;;;;4.33;3.97;;;6.60;99.90;;;7.51;86.35;98509.41;5146813;28;20220;-57
2021/10/01 06:05:40;;;;;;;4.70;4.40;;;6.70;99.90;;;7.59;86.15;98514.31;5146345;28;20199;-60
2021/10/01 06:08:13;;;;;;;4.87;4.50;;;6.80;99.90;;;7.72;85.33;98511.06;5145616;28;20212;-62
2021/10/01 06:10:46;;;;;;;4.07;3.77;;;6.90;99.90;;;7.97;84.53;98511.34;5143994;28;20596;-61
2021/10/01 06:13:21;;;;;;;4.23;3.50;;;7.10;99.90;;;8.30;84.30;98509.63;5145600;28;20230;-62
2021/10/01 06:15:54;;;;;;;3.77;3.30;;;7.40;99.90;;;8.48;82.89;98505.94;5144899;28;20203;-58
2021/10/01 06:18:27;;;;;;;3.50;3.20;;;7.40;99.90;;;8.74;81.58;98505.34;5146168;28;20243;-58
2021/10/01 06:21:00;;;;;;;3.63;3.33;;;7.60;99.90;;;8.95;80.01;98507.69;5146630;28;20223;-59
2021/10/01 06:23:34;;;;;;;3.37;3.17;;;7.80;99.90;;;9.06;79.53;98513.59;5146300;28;20323;-61
2021/10/01 06:26:09;;;;;;;3.20;3.00;;;7.80;99.90;;;9.17;78.95;98505.94;5146262;28;20215;-60
2021/10/01 06:28:43;;;;;;;3.90;3.50;;;7.90;99.90;;;9.47;78.00;98508.94;5146352;28;20213;-60
2021/10/01 06:31:16;;;;;;;3.70;3.40;;;8.20;99.90;;;10.07;75.50;98510.59;5145614;28;20580;-59
2021/10/01 06:33:49;;;;;;;3.53;3.33;;;8.40;99.90;;;10.44;74.34;98495.25;5146166;28;20223;-54
2021/10/01 06:36:23;;;;;;;4.30;4.00;;;8.60;99.90;;;10.50;72.32;98488.00;5146271;28;20203;-58
2021/10/01 06:38:56;;;;;;;4.40;4.10;;;8.80;99.90;;;10.54;72.60;98496.00;5143313;28;20724;-57
2021/10/01 06:41:29;;;;;;;4.30;3.90;;;8.90;99.90;;;10.75;72.53;98496.53;5145009;28;20310;-57
2021/10/01 06:44:06;;;;;;;4.23;3.83;;;9.10;99.90;;;10.81;71.63;98489.25;5145211;28;20215;-57
2021/10/01 06:46:44;;;;;;;4.50;3.92;;;9.40;99.90;;;10.88;71.60;98487.16;5150241;28;20709;-57
2021/10/01 06:49:26;;;;;;;4.03;3.72;;;9.50;99.90;;;10.79;72.03;98490.88;5145888;28;20206;-61
2021/10/01 06:52:20;;;;;;;4.40;4.00;;;9.60;99.90;;;11.01;71.70;98482.03;5142014;28;20200;-61
2021/10/01 07:34:37;;;;;;;3.50;3.30;;;11.60;99.90;;;12.61;66.02;98459.53;5134574;28;20200;-57
2021/10/01 08:21:08;;;;;;;3.63;3.33;;;14.60;99.90;;;15.64;61.21;98425.78;5139215;28;20220;-58
2021/10/01 08:23:42;;;;;;;3.75;3.45;;;15.10;99.90;;;15.85;60.25;98417.28;5139041;28;20580;-59
2021/10/01 08:26:17;;;;;;;3.20;2.92;;;15.20;99.90;;;15.97;60.43;98418.75;5141219;28;20199;-59
2021/10/01 08:28:50;;;;;;;4.00;3.25;;;15.40;99.90;;;16.06;59.47;98415.69;5141652;28;20203;-62
2021/10/01 08:31:27;;;;;;;3.67;2.88;;;15.40;99.90;;;16.23;59.72;98412.97;5142390;28;20209;-63
2021/10/01 08:34:01;;;;;;;4.00;3.60;;;15.70;99.90;;;16.37;57.46;98409.31;5140258;28;20227;-63
2021/10/01 08:36:34;;;;;;;3.72;3.28;;;15.90;99.90;;;16.45;58.00;98407.91;5138605;28;20291;-62
2021/10/01 08:39:09;;;;;;;3.42;3.10;;;15.80;99.90;;;16.74;57.24;98418.56;5135725;28;20204;-61
2021/10/01 08:41:44;;;;;;;3.50;3.17;;;16.20;99.90;;;16.91;57.56;98409.84;5137498;28;20277;-61
2021/10/01 08:44:19;;;;;;;5.47;3.45;;;16.40;99.90;;;16.86;56.99;98403.66;5141913;28;20737;-62
2021/10/01 08:46:52;;;;;;;4.15;2.88;;;16.40;99.90;;;17.07;56.99;98398.47;5140653;28;20291;-63
2021/10/01 08:49:30;;;;;;;2.78;2.58;;;16.50;99.90;;;17.32;56.34;98390.00;5136287;28;20199;-63
2021/10/01 08:52:03;;;;;;;3.10;2.88;;;16.70;99.90;;;17.58;56.16;98384.94;5134028;28;20215;-63
2021/10/01 08:54:38;;;;;;;3.60;2.78;;;17.10;99.90;;;17.74;55.98;98380.41;5134829;28;20624;-58
2021/10/01 08:57:13;;;;;;;3.28;2.70;;;17.20;99.90;;;17.94;55.34;98385.44;5144653;28;20207;-59
2021/10/01 08:59:46;;;;;;;3.53;3.22;;;17.40;99.90;;;18.14;54.56;98383.56;5146682;28;20289;-59
2021/10/01 09:02:19;;;;;;;2.90;2.60;;;17.70;99.90;;;18.08;55.05;98381.66;5144453;28;20607;-60
2021/10/01 09:04:55;;;;;;;3.97;3.15;;;17.60;99.90;;;17.96;55.85;98374.31;5140618;28;20235;-63
2021/10/01 09:07:28;;;;;;;2.80;2.60;;;17.50;99.90;;;18.14;54.92;98376.72;5132936;28;20298;-62
2021/10/01 09:10:01;;;;;;;2.65;2.45;;;17.50;99.90;;;18.29;53.75;98371.19;5134894;28;20204;-59
2021/10/01 09:12:35;;;;;;;2.58;2.17;;;17.60;99.90;;;18.51;52.91;98370.19;5135492;28;20598;-61
2021/10/01 09:15:09;;;;;;;2.63;2.42;;;17.80;99.40;;;18.62;53.45;98365.38;5141248;28;20203;-60
2021/10/01 09:17:50;;;;;;;2.90;2.53;;;18.10;99.80;;;18.78;53.50;98354.75;5141928;28;20298;-56
2021/10/01 09:20:25;;;;;;;3.85;2.90;;;18.30;99.40;;;18.81;53.22;98348.78;5141086;28;20226;-62
2021/10/01 09:23:13;;;;;;;2.92;2.60;;;18.20;99.40;;;18.84;52.88;98347.19;5141465;28;20321;-61
2021/10/01 09:25:47;;;;;;;3.25;2.38;;;18.30;99.10;;;18.88;52.77;98342.97;5139530;28;20235;-62
2021/10/01 09:28:22;;;;;;;2.88;2.50;;;18.30;98.90;;;19.04;52.38;98336.56;5144181;28;20200;-64
2021/10/01 09:30:55;;;;;;;3.40;2.40;;;18.40;98.80;;;19.01;52.96;98336.47;5149692;28;20205;-64
2021/10/01 09:33:28;;;;;;;2.63;2.42;;;18.40;99.50;;;19.32;51.65;98333.13;5145719;28;20238;-62
2021/10/01 09:36:09;;;;;;;3.00;2.60;;;18.70;98.50;;;19.34;51.73;98329.75;5147555;28;20553;-61
2021/10/01 09:38:43;;;;;;;2.20;2.00;;;18.80;98.40;;;19.45;52.16;98329.16;5140689;28;20543;-59
2021/10/01 09:41:22;;;;;;;2.03;1.92;;;18.80;98.90;;;19.59;51.70;98323.53;5144831;28;20574;-62
2021/10/01 09:44:07;;;;;;;2.40;2.20;;;19.00;98.30;;;19.77;50.61;98318.06;5146587;28;20579;-60
2021/10/01 09:46:44;;;;;;;2.25;2.05;;;19.10;97.90;;;19.56;52.68;98322.59;5146746;28;20206;-62
2021/10/01 09:49:30;;;;;;;2.92;2.13;;;19.00;99.10;;;19.74;51.56;98307.59;5146383;28;20214;-63
2021/10/01 09:52:05;;;;;;;2.40;2.08;;;19.10;98.30;;;19.98;51.65;98307.38;5142264;28;20579;-63
2021/10/01 09:54:39;;;;;;;2.95;1.83;;;19.30;98.50;;;20.08;51.02;98298.13;5144383;28;20614;-60
2021/10/01 09:57:13;;;;;;;2.25;2.05;;;19.50;97.80;;;20.15;50.52;98300.03;5145803;28;20203;-59
2021/10/01 09:59:48;;;;;;;2.20;1.70;;;19.60;97.40;;;20.30;49.88;98288.31;5146819;28;20321;-55
2021/10/01 10:02:21;;;;;;;2.03;1.80;;;19.70;97.10;;;20.29;50.14;98286.53;5146106;28;20411;-59
2021/10/01 10:04:56;;;;;;;2.13;1.92;;;19.60;97.40;;;20.35;50.60;98281.50;5143936;28;20204;-59
2021/10/01 10:07:30;;;;;;;3.55;2.13;;;19.70;97.90;;;20.25;51.17;98281.25;5146077;28;20200;-56
2021/10/01 10:10:07;;;;;;;3.40;1.83;;;19.80;97.90;;;20.41;50.97;98276.47;5146655;28;20200;-59
2021/10/01 10:12:43;;;;;;;2.33;1.90;;;19.80;97.30;;;20.48;49.99;98274.03;5144154;28;20224;-60
2021/10/01 10:15:18;;;;;;;2.88;1.90;;;19.90;97.10;;;20.51;49.93;98273.25;5143378;28;20203;-61
2021/10/01 10:17:52;;;;;;;1.98;1.88;;;19.90;96.90;;;20.58;49.69;98262.22;5145609;28;20209;-61
2021/10/01 10:20:25;;;;;;;2.75;2.00;;;19.90;96.60;;;20.52;50.18;98264.63;5146563;28;20295;-64
2021/10/01 10:22:58;;;;;;;2.05;1.92;;;20.00;97.20;;;20.45;51.35;98258.38;5143770;28;20684;-64
2021/10/01 10:25:31;;;;;;;3.10;1.98;;;19.90;97.90;;;20.63;49.97;98250.22;5145748;28;20202;-64
2021/10/01 10:28:05;;;;;;;3.58;2.00;;;20.00;96.90;;;20.99;48.45;98248.41;5144289;28;20682;-63
2021/10/01 10:30:39;;;;;;;2.88;2.00;;;20.00;96.40;;;20.97;47.99;98252.69;5143664;28;20210;-63
2021/10/01 10:33:37;;;;;;;2.45;1.90;;;20.10;96.00;;;21.09;47.74;98248.66;5144661;28;20238;-64
2021/10/01 10:36:33;;;;;;;2.83;2.00;;;20.40;95.80;;;20.99;46.93;98251.88;5144890;28;20199;-63
2021/10/01 10:39:43;;;;;;;2.05;1.85;;;20.20;95.10;;;21.03;47.24;98247.63;5137564;28;20200;-62
2021/10/01 10:42:34;;;;;;;1.98;1.67;;;20.30;95.30;;;21.15;47.17;98248.78;5141772;28;20220;-62
2021/10/01 10:45:20;;;;;;;1.75;1.60;;;20.20;95.70;;;21.31;47.37;98252.56;5141181;28;20196;-63
2021/10/01 10:48:01;;;;;;;3.22;2.30;;;20.40;95.80;;;21.25;47.42;98242.03;5144569;28;20206;-63
2021/10/01 10:50:47;;;;;;;2.15;1.95;;;20.40;95.60;;;20.98;47.67;98239.75;5145464;28;20196;-63
2021/10/01 10:53:29;;;;;;;2.10;1.63;;;20.20;95.60;;;20.87;48.50;98234.28;5144065;28;20235;-64
2021/10/01 10:56:23;;;;;;;1.90;1.80;;;20.20;96.00;;;20.95;47.10;98229.28;5142507;28;20218;-63
2021/10/01 10:58:57;;;;;;;1.98;1.70;;;20.20;94.90;;;21.00;47.53;98222.44;5138752;28;20214;-63
2021/10/01 11:01:39;;;;;;;1.92;1.63;;;20.20;95.20;;;20.91;47.77;98217.91;5143673;28;20196;-63
2021/10/01 11:04:30;;;;;;;1.95;1.73;;;20.20;95.70;;;20.92;48.10;98213.63;5138841;28;20223;-63
2021/10/01 11:07:09;;;;;;;1.98;1.88;;;20.20;95.70;;;21.04;48.26;98213.88;5142553;28;20200;-64
2021/10/01 11:09:42;;;;;;;3.15;2.28;;;20.20;96.00;;;21.07;47.26;98218.25;5142107;28;20203;-63
2021/10/01 11:12:27;;;;;;;2.25;1.80;;;20.30;95.10;;;20.98;46.96;98215.47;5145022;28;20216;-64
2021/10/01 11:15:16;;;;;;;2.08;1.88;;;20.20;94.90;;;21.01;47.00;98213.81;5142658;28;20292;-63
2021/10/01 11:18:13;;;;;;;2.15;1.98;;;20.30;95.20;;;20.98;47.50;98211.16;5138388;28;20586;-63
2021/10/01 11:20:48;;;;;;;1.85;1.73;;;20.20;95.10;;;20.91;46.91;98204.03;5136869;28;20868;-63
2021/10/01 11:23:21;;;;;;;2.78;1.83;;;20.10;95.00;;;20.94;47.36;98206.72;5137162;28;20807;-63
2021/10/01 11:25:55;;;;;;;2.20;2.00;;;20.10;95.00;;;20.96;47.45;98189.44;5137680;28;20200;-62
2021/10/01 11:28:33;;;;;;;2.13;1.63;;;20.20;95.00;;;21.16;47.25;98195.06;5139074;28;20299;-63
2021/10/01 11:31:06;;;;;;;2.88;2.00;;;20.30;94.80;;;21.20;45.31;98189.06;5137949;28;20213;-63
2021/10/01 11:33:48;;;;;;;2.05;1.60;;;20.40;93.90;;;21.09;46.19;98181.06;5136480;28;20216;-63
2021/10/01 11:36:27;;;;;;;2.08;1.80;;;20.30;94.20;;;21.19;46.15;98182.13;5142446;28;20536;-63
2021/10/01 11:39:06;;;;;;;1.92;1.83;;;20.20;94.50;;;21.13;47.39;98176.78;5136784;28;20206;-63
2021/10/01 11:41:41;;;;;;;2.72;1.80;;;20.30;95.10;;;21.17;46.96;98167.31;5137506;28;20711;-64
2021/10/01 11:44:15;;;;;;;2.30;1.58;;;20.30;95.30;;;21.05;47.95;98171.44;5133942;28;20223;-62
2021/10/01 11:46:50;;;;;;;2.38;1.75;;;20.20;95.40;;;20.88;47.56;98171.06;5136613;28;20207;-62
2021/10/01 11:49:27;;;;;;;2.75;1.70;;;20.10;94.90;;;20.99;46.90;98158.31;5138770;28;20195;-63
2021/10/01 11:52:05;;;;;;;2.35;1.70;;;20.20;94.60;;;21.22;46.63;98160.50;5139427;28;20227;-62
2021/10/01 11:54:38;;;;;;;2.38;1.90;;;20.30;94.90;;;21.24;46.11;98159.69;5140707;28;20444;-63
2021/10/01 11:57:13;;;;;;;1.70;1.60;;;20.30;94.40;;;21.19;45.28;98156.13;5135831;28;20204;-63
2021/10/01 11:59:54;;;;;;;3.65;1.77;;;20.30;93.50;;;21.13;44.79;98159.47;5135704;28;20250;-63
2021/10/01 12:02:33;;;;;;;2.70;1.90;;;20.20;93.50;;;21.01;45.61;98158.34;5137670;28;20232;-62
2021/10/01 12:05:30;;;;;;;1.80;1.65;;;20.20;93.70;;;21.12;44.40;98152.53;5142684;28;20220;-62
2021/10/01 12:08:07;;;;;;;1.98;1.77;;;20.20;92.70;;;21.14;44.50;98143.00;5140127;28;20762;-62
2021/10/01 12:10:43;;;;;;;1.48;1.38;;;20.10;93.00;;;21.18;43.69;98143.09;5135872;28;20586;-62
2021/10/01 12:13:38;;;;;;;2.72;1.50;;;20.20;92.50;;;21.14;44.09;98134.34;5137565;28;20220;-62
2021/10/01 12:16:12;;;;;;;2.45;1.77;;;20.30;92.60;;;21.11;44.27;98132.56;5135714;28;20250;-62
2021/10/01 12:18:54;;;;;;;3.20;1.73;;;20.30;92.80;;;21.27;42.38;98128.53;5138674;28;20207;-64
2021/10/01 12:21:30;;;;;;;1.67;1.40;;;20.50;91.40;;;21.40;40.30;98124.47;5142487;28;20219;-64
2021/10/01 12:24:11;;;;;;;1.80;1.70;;;20.50;90.00;;;21.49;41.04;98122.06;5153441;28;20683;-64
2021/10/01 12:26:46;;;;;;;2.75;1.73;;;20.50;90.30;;;21.53;40.55;98108.25;5138244;28;20664;-64
2021/10/01 12:29:23;;;;;;;2.40;1.80;;;20.60;90.50;;;21.54;40.72;98099.56;5150505;28;20209;-63
2021/10/01 12:32:01;;;;;;;1.88;1.70;;;20.60;90.50;;;21.47;41.61;98095.13;5148961;28;20214;-64